Annsville, New York
Current Conditions -  °F | °C
As of 4:53 AM on Thursday 27 Nov 2014 (Local Time) from KRME Reporting Station
Light Snow Light Snow  
Wind Chill: 17°   Ceiling: 1700
Heat Index: 27°   Visibility: 5mi
Dew Point: 26°   Wind: 10mph
Humidity: 96%   Direction: 290°WNW
Pressure: 29.99"   Gusts: NA
Location:  43.3949°N, 75.6118°W
Report Text: KRME 270953Z AUTO 29009KT 5SM -SN BR BKN017 OVC044 M03/M03 A2999 RMK AO2 SLP159 P0000 T10281033
Loading
Personal Weather Stations






























Interactive Weather Map New forecast layout! Learn more

10-Day Weather Forecast

Advertisements
Track Severe Weather on mobile